Time;durP1;ratioP1;P1;durP2;ratioP2;P2;SDS_P1;SDS_P2;PMS_P1;PMS_P2;Temp;Humidity;BMP_temperature;BMP_pressure;BME280_temperature;BME280_humidity;BME280_pressure;Samples;Min_cycle;Max_cycle;Signal;HPM_P1;HPM_P2
2022/09/14 00:01:35;;;;;;;3.13;2.30;;;;;;;15.85;91.91;100776.16;4951480;29;20035;-66
2022/09/14 00:04:03;;;;;;;4.90;2.28;;;;;;;15.86;92.87;100775.94;4951765;29;20501;-65
2022/09/14 00:06:29;;;;;;;6.60;2.92;;;;;;;15.82;92.41;100764.00;4951861;28;20985;-65
2022/09/14 00:08:57;;;;;;;7.53;2.40;;;;;;;15.84;92.65;100763.78;4951836;29;20043;-66
2022/09/14 00:11:25;;;;;;;3.33;1.88;;;;;;;15.83;92.83;100754.09;4951589;29;20546;-65
2022/09/14 00:13:51;;;;;;;6.60;2.10;;;;;;;15.85;92.75;100758.19;4951376;29;20065;-65
2022/09/14 00:16:21;;;;;;;11.30;2.70;;;;;;;15.83;92.34;100754.91;4951638;29;20019;-65
2022/09/14 00:18:52;;;;;;;6.50;2.38;;;;;;;15.79;92.66;100740.28;4951723;29;20038;-65
2022/09/14 00:21:17;;;;;;;4.60;2.25;;;;;;;15.77;92.05;100745.06;4933202;29;20027;-66
2022/09/14 00:23:42;;;;;;;2.80;1.73;;;;;;;15.74;91.79;100746.34;4951672;29;20031;-66
2022/09/14 00:26:11;;;;;;;4.00;2.20;;;;;;;15.73;92.73;100750.09;4951550;29;20471;-65
2022/09/14 00:28:41;;;;;;;6.32;2.00;;;;;;;15.72;92.51;100744.97;4951322;29;20038;-65
2022/09/14 00:31:08;;;;;;;8.38;2.88;;;;;;;15.71;91.84;100737.94;4951209;29;20486;-65
2022/09/14 00:33:33;;;;;;;2.90;1.58;;;;;;;15.61;91.35;100727.72;4951374;29;20146;-65
2022/09/14 00:36:09;;;;;;;7.15;2.45;;;;;;;15.65;91.33;100739.66;4951157;28;20243;-66
2022/09/14 00:38:35;;;;;;;5.45;2.03;;;;;;;15.63;91.82;100732.88;4950853;28;20042;-65
2022/09/14 00:41:01;;;;;;;6.93;2.22;;;;;;;15.57;93.26;100729.25;4950936;29;20027;-65
2022/09/14 00:43:28;;;;;;;4.38;2.67;;;;;;;15.52;91.38;100732.63;4951100;29;20046;-65
2022/09/14 00:45:54;;;;;;;3.90;2.22;;;;;;;15.50;91.08;100732.03;4951121;29;20452;-65
2022/09/14 00:48:23;;;;;;;5.18;1.55;;;;;;;15.46;92.42;100719.31;4950858;29;20031;-65
2022/09/14 00:50:49;;;;;;;8.00;1.90;;;;;;;15.40;92.47;100712.16;4941876;29;20030;-65
2022/09/14 00:53:14;;;;;;;9.60;2.75;;;;;;;15.41;91.88;100716.50;4947564;28;20039;-66
2022/09/14 00:55:40;;;;;;;7.45;2.83;;;;;;;15.38;93.01;100708.88;4932408;29;20539;-65
2022/09/14 00:58:05;;;;;;;9.23;2.83;;;;;;;15.35;92.55;100702.09;4932348;29;20443;-65
2022/09/14 01:00:31;;;;;;;7.85;2.47;;;;;;;15.30;93.79;100697.44;4932471;29;20035;-65
2022/09/14 01:02:56;;;;;;;4.60;1.77;;;;;;;15.24;93.53;100692.97;4932213;29;20035;-65
2022/09/14 01:05:34;;;;;;;8.25;2.00;;;;;;;15.21;94.68;100688.06;4932514;29;20036;-65
2022/09/14 01:08:12;;;;;;;10.45;2.63;;;;;;;15.20;94.52;100688.31;4932400;29;20027;-65
2022/09/14 01:10:46;;;;;;;8.15;2.30;;;;;;;15.16;94.16;100681.75;4915450;29;20487;-65
2022/09/14 01:13:27;;;;;;;6.32;3.08;;;;;;;15.15;94.66;100686.31;4932490;29;20059;-65
2022/09/14 01:16:29;;;;;;;9.50;3.17;;;;;;;15.11;94.64;100680.56;4932516;29;20075;-65
2022/09/14 01:19:03;;;;;;;5.88;2.20;;;;;;;15.09;93.51;100673.78;4932595;29;20042;-65
2022/09/14 01:21:32;;;;;;;3.50;2.35;;;;;;;15.04;93.77;100671.00;4950462;29;20483;-65
2022/09/14 01:24:10;;;;;;;5.80;2.17;;;;;;;15.04;94.22;100671.00;4950875;28;20425;-65
2022/09/14 01:26:57;;;;;;;5.95;2.50;;;;;;;15.00;93.32;100673.31;4950755;28;20027;-65
2022/09/14 01:29:25;;;;;;;6.13;2.67;;;;;;;14.96;94.42;100663.25;4950685;29;20110;-65
2022/09/14 01:31:55;;;;;;;14.52;3.40;;;;;;;14.86;94.50;100672.72;4950533;28;20039;-65
2022/09/14 01:34:51;;;;;;;9.57;2.97;;;;;;;14.80;95.37;100675.47;4950603;29;20031;-65
2022/09/14 01:37:23;;;;;;;6.75;2.38;;;;;;;14.74;96.37;100677.22;4942652;28;20043;-65
2022/09/14 01:39:53;;;;;;;8.23;2.25;;;;;;;14.75;96.37;100680.72;4950598;29;20036;-65
2022/09/14 01:42:22;;;;;;;11.30;3.42;;;;;;;14.72;95.94;100682.00;4950381;28;20027;-65
2022/09/14 01:44:52;;;;;;;6.68;2.30;;;;;;;14.59;97.42;100663.38;4950607;29;20027;-65
2022/09/14 01:47:30;;;;;;;5.97;2.35;;;;;;;14.58;96.70;100676.00;4950594;29;20178;-65
2022/09/14 01:50:11;;;;;;;4.13;1.92;;;;;;;14.55;98.20;100675.63;4952265;28;20039;-69
2022/09/14 01:52:43;;;;;;;8.23;1.93;;;;;;;14.39;98.58;100656.41;4954242;28;20024;-70
2022/09/14 01:55:15;;;;;;;7.78;2.70;;;;;;;14.46;98.54;100670.56;4953999;29;20325;-69
2022/09/14 01:57:50;;;;;;;9.20;2.88;;;;;;;14.47;98.83;100668.69;4954056;29;20042;-69
2022/09/14 02:00:18;;;;;;;4.50;2.25;;;;;;;14.44;99.57;100664.59;4953756;28;20038;-69
2022/09/14 02:03:01;;;;;;;4.63;2.10;;;;;;;14.42;99.83;100649.75;4953875;29;20031;-69
2022/09/14 02:05:37;;;;;;;5.45;2.20;;;;;;;14.42;100.00;100657.81;4953734;29;20082;-69
2022/09/14 02:08:03;;;;;;;4.78;2.65;;;;;;;14.40;99.61;100657.22;4953554;29;20038;-69
2022/09/14 02:10:28;;;;;;;7.93;3.53;;;;;;;14.39;100.00;100656.41;4953903;29;20031;-69
2022/09/14 02:12:54;;;;;;;5.38;2.42;;;;;;;14.40;100.00;100657.22;4953405;28;20182;-69
2022/09/14 02:15:21;;;;;;;7.60;2.22;;;;;;;14.40;100.00;100660.72;4953636;29;20106;-70
2022/09/14 02:17:48;;;;;;;7.95;2.60;;;;;;;14.46;100.00;100662.50;4953702;29;20035;-69
2022/09/14 02:20:20;;;;;;;12.45;2.60;;;;;;;14.46;100.00;100664.34;4953840;29;20039;-69
2022/09/14 02:22:46;;;;;;;5.97;3.00;;;;;;;14.53;100.00;100669.66;4953639;28;20027;-69
2022/09/14 02:25:11;;;;;;;9.20;2.55;;;;;;;14.54;100.00;100668.63;4953696;29;20023;-69
2022/09/14 02:27:37;;;;;;;6.53;3.25;;;;;;;14.55;100.00;100665.72;4953418;28;20046;-70
2022/09/14 02:30:03;;;;;;;5.18;2.80;;;;;;;14.53;100.00;100661.63;4953444;28;20066;-70
2022/09/14 02:32:47;;;;;;;5.93;2.30;;;;;;;14.56;100.00;100663.84;4953526;29;20031;-69
2022/09/14 02:35:15;;;;;;;7.50;1.95;;;;;;;14.59;100.00;100661.53;4953370;28;20114;-69
2022/09/14 02:37:52;;;;;;;9.15;2.85;;;;;;;14.58;100.00;100665.25;4953248;28;20030;-69
2022/09/14 02:40:25;;;;;;;5.22;2.78;;;;;;;14.53;100.00;100659.75;4953290;28;20134;-69
2022/09/14 02:43:09;;;;;;;4.68;2.42;;;;;;;14.49;100.00;100663.91;4953117;29;20027;-69
2022/09/14 02:46:19;;;;;;;5.82;2.80;;;;;;;14.44;100.00;100655.72;4953342;29;20057;-70
2022/09/14 02:49:10;;;;;;;8.13;2.97;;;;;;;14.39;100.00;100644.84;4925809;29;20047;-70
2022/09/14 02:51:44;;;;;;;6.47;2.80;;;;;;;14.46;100.00;100667.03;4953272;29;20027;-69
2022/09/14 02:54:35;;;;;;;6.57;3.15;;;;;;;14.45;100.00;100665.41;4953108;29;20027;-69
2022/09/14 02:57:02;;;;;;;4.97;2.70;;;;;;;14.44;100.00;100666.47;4952949;29;20045;-70
2022/09/14 02:59:28;;;;;;;4.85;2.50;;;;;;;14.35;100.00;100647.16;4952605;28;20089;-69
2022/09/14 03:01:54;;;;;;;6.88;3.17;;;;;;;14.41;100.00;100661.56;4952537;28;20923;-69
2022/09/14 03:04:20;;;;;;;6.43;2.05;;;;;;;14.38;100.00;100656.63;4952887;29;20042;-69
2022/09/14 03:06:45;;;;;;;4.10;2.60;;;;;;;14.40;100.00;100663.41;4952310;29;20027;-70
2022/09/14 03:09:11;;;;;;;5.00;2.83;;;;;;;14.37;100.00;100655.81;4953000;29;20027;-69
2022/09/14 03:11:36;;;;;;;4.93;2.17;;;;;;;14.35;100.00;100652.53;4952688;28;20066;-69
2022/09/14 03:14:01;;;;;;;3.17;2.20;;;;;;;14.31;100.00;100648.66;4952941;29;20090;-69
2022/09/14 03:16:27;;;;;;;8.85;2.50;;;;;;;14.27;100.00;100646.66;4952517;28;20138;-69
2022/09/14 03:18:52;;;;;;;7.03;3.03;;;;;;;14.24;100.00;100650.59;4952949;29;20134;-69
2022/09/14 03:21:18;;;;;;;8.57;3.25;;;;;;;14.17;100.00;100639.97;4952485;28;20135;-69
2022/09/14 03:23:46;;;;;;;6.68;2.10;;;;;;;14.19;100.00;100647.78;4952625;29;20086;-70
2022/09/14 03:26:17;;;;;;;5.65;2.17;;;;;;;14.15;100.00;100639.38;4952490;28;20114;-69
2022/09/14 03:28:43;;;;;;;8.90;3.08;;;;;;;14.14;100.00;100639.59;4952585;29;20034;-69
2022/09/14 03:31:10;;;;;;;8.75;3.75;;;;;;;14.11;100.00;100637.38;4952058;29;20501;-69
2022/09/14 03:33:36;;;;;;;7.47;3.58;;;;;;;14.06;100.00;100632.66;4952061;29;20045;-70
2022/09/14 03:36:10;;;;;;;6.75;2.75;;;;;;;14.02;100.00;100624.28;4952192;29;20399;-69
2022/09/14 03:38:35;;;;;;;8.38;3.63;;;;;;;14.05;100.00;100630.22;4952118;29;20038;-70
2022/09/14 03:41:06;;;;;;;7.03;2.33;;;;;;;14.01;100.00;100625.28;4952341;29;20027;-69
2022/09/14 03:43:32;;;;;;;9.20;2.40;;;;;;;13.99;100.00;100629.25;4952188;28;20037;-70
2022/09/14 03:46:04;;;;;;;6.63;2.40;;;;;;;13.94;100.00;100623.75;4952183;28;20028;-69
2022/09/14 03:48:29;;;;;;;6.82;2.78;;;;;;;13.84;100.00;100613.56;4952131;29;20167;-69
2022/09/14 03:50:54;;;;;;;6.78;2.30;;;;;;;13.90;100.00;100609.16;4951924;29;20537;-70
2022/09/14 03:53:20;;;;;;;8.02;2.60;;;;;;;13.91;100.00;100608.09;4952014;29;20497;-69
2022/09/14 03:55:45;;;;;;;5.15;2.05;;;;;;;13.89;100.00;100605.66;4952015;29;20151;-70
2022/09/14 03:58:10;;;;;;;7.53;3.05;;;;;;;13.87;100.00;100613.09;4951972;29;20031;-70
2022/09/14 04:00:38;;;;;;;4.95;2.42;;;;;;;13.80;100.00;100607.00;4951840;29;20062;-70
2022/09/14 04:03:04;;;;;;;7.88;2.17;;;;;;;13.72;100.00;100601.94;4951446;29;20043;-70
2022/09/14 04:05:29;;;;;;;6.35;2.10;;;;;;;13.66;100.00;100597.47;4951837;29;20102;-69
2022/09/14 04:07:54;;;;;;;3.65;2.67;;;;;;;13.61;100.00;100603.50;4951079;29;20550;-70
2022/09/14 04:10:20;;;;;;;2.88;2.15;;;;;;;13.55;100.00;100599.84;4951831;29;20038;-69
2022/09/14 04:12:45;;;;;;;7.20;2.63;;;;;;;13.55;100.00;100599.03;4950750;28;20133;-70
2022/09/14 04:15:10;;;;;;;5.13;2.70;;;;;;;13.54;100.00;100586.66;4951513;29;20067;-70
2022/09/14 04:17:36;;;;;;;5.72;2.20;;;;;;;13.53;100.00;100591.22;4951646;29;20089;-69
2022/09/14 04:20:01;;;;;;;5.63;2.25;;;;;;;13.53;100.00;100585.03;4951568;29;20082;-69
2022/09/14 04:22:27;;;;;;;6.75;2.42;;;;;;;13.56;100.00;100590.75;4951506;28;20049;-69
2022/09/14 04:24:53;;;;;;;8.98;3.40;;;;;;;13.58;100.00;100588.69;4951363;29;20038;-70
2022/09/14 04:27:18;;;;;;;7.93;3.15;;;;;;;13.62;100.00;100582.88;4933843;29;20039;-69
2022/09/14 04:29:44;;;;;;;5.60;1.88;;;;;;;13.62;100.00;100581.00;4951316;29;20049;-69
2022/09/14 04:32:09;;;;;;;6.07;1.90;;;;;;;13.62;100.00;100577.50;4951314;28;20055;-69
2022/09/14 04:34:35;;;;;;;3.58;2.35;;;;;;;13.67;100.00;100580.34;4951253;29;20042;-69
2022/09/14 04:37:00;;;;;;;3.25;1.90;;;;;;;13.69;100.00;100575.59;4951210;29;20387;-70
2022/09/14 04:39:26;;;;;;;6.10;2.70;;;;;;;13.69;100.00;100568.34;4951321;29;20078;-69
2022/09/14 04:41:51;;;;;;;10.68;2.88;;;;;;;13.75;100.00;100563.97;4951354;28;20471;-69
2022/09/14 04:44:16;;;;;;;2.55;2.20;;;;;;;13.73;100.00;100561.50;4951169;28;20144;-69
2022/09/14 04:46:42;;;;;;;9.48;3.13;;;;;;;13.77;100.00;100560.00;4950977;29;20035;-69
2022/09/14 04:49:08;;;;;;;6.18;2.50;;;;;;;13.81;100.00;100563.06;4951142;29;20043;-70
2022/09/14 04:51:34;;;;;;;6.47;2.22;;;;;;;13.86;100.00;100567.75;4951138;29;20034;-70
2022/09/14 04:54:02;;;;;;;6.93;2.17;;;;;;;13.82;100.00;100559.34;4951089;28;20034;-71
2022/09/14 04:56:32;;;;;;;8.82;3.13;;;;;;;13.90;100.00;100560.91;4951040;29;20145;-70
2022/09/14 04:58:59;;;;;;;6.43;2.33;;;;;;;13.92;100.00;100564.19;4933637;29;20030;-71
2022/09/14 05:01:37;;;;;;;6.93;2.50;;;;;;;13.91;100.00;100559.84;4950898;29;20031;-70
2022/09/14 05:04:03;;;;;;;7.57;3.58;;;;;;;13.97;100.00;100561.63;4950522;28;20112;-71
2022/09/14 05:06:32;;;;;;;5.65;2.40;;;;;;;13.97;100.00;100556.28;4950879;29;20563;-70
2022/09/14 05:08:58;;;;;;;7.88;3.05;;;;;;;14.00;100.00;100555.81;4950315;29;20434;-70
2022/09/14 05:11:28;;;;;;;7.57;2.63;;;;;;;13.98;100.00;100561.41;4950574;28;20122;-71
2022/09/14 05:13:55;;;;;;;4.20;2.50;;;;;;;14.00;100.00;100558.50;4950622;28;20113;-71
2022/09/14 05:16:26;;;;;;;4.28;3.00;;;;;;;13.96;100.00;100542.06;4950862;29;20027;-70
2022/09/14 05:18:57;;;;;;;4.93;2.57;;;;;;;13.98;100.00;100548.00;4950817;28;20110;-71
2022/09/14 05:21:24;;;;;;;8.30;3.45;;;;;;;14.01;100.00;100544.03;4950926;28;20039;-71
2022/09/14 05:23:54;;;;;;;11.32;4.10;;;;;;;14.01;100.00;100544.84;4952348;28;20035;-70
2022/09/14 05:26:20;;;;;;;10.52;4.05;;;;;;;14.05;100.00;100544.41;4954656;28;20098;-67
2022/09/14 05:28:50;;;;;;;6.00;3.30;;;;;;;14.03;100.00;100550.00;4954698;28;20034;-66
2022/09/14 05:31:15;;;;;;;7.70;2.92;;;;;;;14.05;100.00;100545.22;4936274;29;20040;-67
2022/09/14 05:33:41;;;;;;;5.07;2.75;;;;;;;14.10;100.00;100548.06;4936169;29;20031;-67
2022/09/14 05:36:07;;;;;;;6.90;3.53;;;;;;;14.14;100.00;100559.13;4935957;29;20035;-67
2022/09/14 05:38:35;;;;;;;3.95;2.45;;;;;;;14.15;100.00;100550.06;4936100;29;20090;-65
2022/09/14 05:41:01;;;;;;;10.68;4.30;;;;;;;14.14;100.00;100559.94;4953932;28;20497;-66
2022/09/14 05:43:27;;;;;;;3.00;2.67;;;;;;;14.16;100.00;100557.84;4954355;28;20151;-66
2022/09/14 05:45:53;;;;;;;5.82;3.67;;;;;;;14.15;100.00;100569.66;4954484;28;20078;-66
2022/09/14 05:48:18;;;;;;;11.57;3.22;;;;;;;14.13;100.00;100561.00;4935859;29;20032;-66
2022/09/14 05:50:44;;;;;;;4.38;3.10;;;;;;;14.16;100.00;100570.47;4935940;29;20388;-67
2022/09/14 05:53:09;;;;;;;9.15;3.03;;;;;;;14.16;100.00;100565.09;4954052;29;20114;-67
2022/09/14 05:55:34;;;;;;;7.80;3.15;;;;;;;14.14;100.00;100569.84;4936700;29;20521;-66
2022/09/14 05:58:00;;;;;;;6.80;2.80;;;;;;;14.14;100.00;100573.34;4954292;29;20050;-66
2022/09/14 06:00:26;;;;;;;8.23;4.63;;;;;;;14.15;100.00;100576.88;4953948;29;20174;-66
2022/09/14 06:02:53;;;;;;;4.53;2.65;;;;;;;14.06;100.00;100573.66;4953813;29;20078;-66
2022/09/14 06:05:20;;;;;;;9.38;3.85;;;;;;;14.03;100.00;100582.19;4953768;29;20032;-66
2022/09/14 06:07:52;;;;;;;6.30;3.47;;;;;;;13.97;100.00;100583.91;4953683;29;20175;-66
2022/09/14 06:10:19;;;;;;;7.40;3.25;;;;;;;13.95;100.00;100577.13;4942844;29;20039;-66
2022/09/14 06:12:44;;;;;;;6.57;2.90;;;;;;;13.91;100.00;100576.78;4934749;29;20051;-65
2022/09/14 06:15:10;;;;;;;10.35;4.40;;;;;;;13.94;100.00;100570.94;4935313;29;20043;-65
2022/09/14 06:17:36;;;;;;;6.05;3.00;;;;;;;13.90;100.00;100572.44;4935389;29;20065;-66
2022/09/14 06:20:02;;;;;;;6.95;3.08;;;;;;;13.92;100.00;100578.41;4935318;29;20068;-66
2022/09/14 06:22:27;;;;;;;7.10;3.25;;;;;;;13.92;100.00;100573.03;4935160;29;20039;-66
2022/09/14 06:24:53;;;;;;;11.70;4.68;;;;;;;13.95;100.00;100571.75;4935166;29;20035;-66
2022/09/14 06:27:18;;;;;;;9.65;4.05;;;;;;;14.00;100.00;100574.59;4935160;29;20091;-67
2022/09/14 06:29:43;;;;;;;6.78;3.13;;;;;;;14.03;100.00;100568.75;4944901;29;20403;-66
2022/09/14 06:32:09;;;;;;;7.15;3.10;;;;;;;14.08;100.00;100568.09;4953650;29;20344;-67
2022/09/14 06:34:34;;;;;;;11.63;3.97;;;;;;;14.07;100.00;100561.91;4952879;28;20039;-67
2022/09/14 06:37:00;;;;;;;5.55;3.40;;;;;;;14.11;100.00;100564.97;4953049;29;20071;-66
2022/09/14 06:39:25;;;;;;;8.75;3.03;;;;;;;14.12;100.00;100570.09;4953127;28;20094;-66
2022/09/14 06:41:53;;;;;;;8.93;4.05;;;;;;;14.11;100.00;100560.41;4936116;29;20054;-66
2022/09/14 06:44:18;;;;;;;9.52;3.28;;;;;;;14.18;100.00;100566.50;4936430;29;20035;-66
2022/09/14 06:46:44;;;;;;;9.63;4.03;;;;;;;14.20;100.00;100566.25;4953195;29;20028;-66
2022/09/14 06:49:12;;;;;;;6.65;3.25;;;;;;;14.23;100.00;100558.59;4953304;28;20028;-66
2022/09/14 06:51:40;;;;;;;7.57;3.67;;;;;;;14.21;100.00;100543.78;4953148;29;20530;-66
2022/09/14 06:54:06;;;;;;;7.18;3.58;;;;;;;14.29;100.00;100553.38;4953078;28;20023;-66
2022/09/14 06:56:34;;;;;;;12.13;4.07;;;;;;;14.30;100.00;100555.81;4952814;28;20031;-66
2022/09/14 06:59:00;;;;;;;11.15;4.60;;;;;;;14.34;100.00;100558.88;4953047;29;20110;-66
2022/09/14 07:01:26;;;;;;;6.88;3.70;;;;;;;14.31;100.00;100553.97;4952872;29;20031;-66
2022/09/14 07:03:53;;;;;;;6.38;4.00;;;;;;;14.33;100.00;100559.88;4952905;29;20616;-66
2022/09/14 07:06:21;;;;;;;7.93;3.47;;;;;;;14.30;100.00;100553.13;4933814;29;20095;-66
2022/09/14 07:08:48;;;;;;;9.20;4.15;;;;;;;14.33;100.00;100558.06;4933972;29;20052;-66
2022/09/14 07:11:16;;;;;;;9.93;4.72;;;;;;;14.36;100.00;100552.22;4952380;29;20023;-67
2022/09/14 07:13:41;;;;;;;10.57;4.22;;;;;;;14.35;100.00;100560.50;4951968;28;20138;-67
2022/09/14 07:16:07;;;;;;;7.25;4.10;;;;;;;14.30;100.00;100555.00;4952332;29;20072;-67
2022/09/14 07:18:33;;;;;;;7.70;3.67;;;;;;;14.38;100.00;100558.19;4952611;29;20398;-67
2022/09/14 07:21:06;;;;;;;12.98;3.75;;;;;;;14.36;100.00;100552.22;4952379;28;20046;-66
2022/09/14 07:23:34;;;;;;;10.05;4.47;;;;;;;14.34;100.00;100558.88;4952537;29;20368;-66
2022/09/14 07:26:04;;;;;;;8.20;4.32;;;;;;;14.31;100.00;100546.72;4949339;28;20570;-68
2022/09/14 07:28:30;;;;;;;8.05;3.83;;;;;;;14.23;100.00;100542.50;4936698;28;20134;-67
2022/09/14 07:30:55;;;;;;;8.15;3.42;;;;;;;14.16;100.00;100535.59;4938251;28;20028;-67
2022/09/14 07:33:20;;;;;;;7.80;4.05;;;;;;;14.08;100.00;100539.41;4937360;28;20050;-66
2022/09/14 07:35:46;;;;;;;11.65;4.07;;;;;;;14.03;100.00;100541.94;4937750;28;20444;-67
2022/09/14 07:38:11;;;;;;;15.32;4.60;;;;;;;14.11;100.00;100546.19;4937896;28;20044;-68
2022/09/14 07:40:36;;;;;;;13.75;6.25;;;;;;;14.14;100.00;100553.78;4919494;28;20036;-68
2022/09/14 07:43:02;;;;;;;6.88;4.20;;;;;;;14.09;100.00;100537.53;4938193;28;20050;-66
2022/09/14 07:45:27;;;;;;;8.27;4.43;;;;;;;14.08;100.00;100542.09;4937348;28;20024;-66
2022/09/14 07:47:54;;;;;;;7.95;3.42;;;;;;;14.06;100.00;100540.69;4935357;28;20038;-66
2022/09/14 07:50:20;;;;;;;5.95;3.47;;;;;;;14.01;100.00;100539.47;4938263;28;20059;-66
2022/09/14 07:52:49;;;;;;;6.07;3.63;;;;;;;13.96;100.00;100530.50;4936039;28;20570;-65
2022/09/14 07:55:15;;;;;;;5.47;3.08;;;;;;;13.99;100.00;100541.59;4936688;28;20034;-67
2022/09/14 07:57:40;;;;;;;7.38;2.85;;;;;;;13.99;100.00;100540.75;4939262;28;20040;-72
2022/09/14 08:00:07;;;;;;;10.70;3.35;;;;;;;14.04;100.00;100535.53;4937140;28;20383;-68
2022/09/14 08:02:33;;;;;;;11.40;4.00;;;;;;;14.05;100.00;100541.75;4937385;28;20046;-69
2022/09/14 08:04:58;;;;;;;8.73;4.18;;;;;;;14.06;100.00;100538.81;4936359;28;20097;-69
2022/09/14 08:07:24;;;;;;;9.50;3.60;;;;;;;14.06;100.00;100538.00;4936680;28;20035;-68
2022/09/14 08:09:49;;;;;;;6.22;3.63;;;;;;;13.99;100.00;100533.56;4936357;28;20031;-68
2022/09/14 08:12:15;;;;;;;12.27;3.58;;;;;;;14.03;100.00;100537.41;4937219;28;20035;-69
2022/09/14 08:14:41;;;;;;;9.85;3.47;;;;;;;14.05;100.00;100539.06;4937264;28;20110;-69
2022/09/14 08:17:06;;;;;;;5.97;3.05;;;;;;;14.05;100.00;100539.06;4936010;28;20042;-69
2022/09/14 08:19:32;;;;;;;9.77;3.58;;;;;;;14.06;100.00;100546.84;4937458;28;20035;-70
2022/09/14 08:21:57;;;;;;;6.78;3.58;;;;;;;14.04;100.00;100532.84;4937426;28;20027;-69
2022/09/14 08:24:23;;;;;;;8.60;3.67;;;;;;;14.05;100.00;100520.28;4936341;28;20027;-68
2022/09/14 08:26:48;;;;;;;6.43;3.88;;;;;;;14.03;100.00;100529.34;4936978;28;20023;-68
2022/09/14 08:29:15;;;;;;;9.65;3.58;;;;;;;14.04;100.00;100527.50;4933662;28;20040;-69
2022/09/14 08:31:43;;;;;;;12.32;4.25;;;;;;;14.07;100.00;100526.22;4933092;29;20058;-69
2022/09/14 08:34:08;;;;;;;8.57;3.30;;;;;;;14.07;100.00;100527.06;4934585;29;20031;-69
2022/09/14 08:36:37;;;;;;;7.90;3.67;;;;;;;14.11;100.00;100530.91;4951061;29;20031;-69
2022/09/14 08:39:05;;;;;;;10.82;3.75;;;;;;;14.15;100.00;100525.91;4951383;29;20485;-69
2022/09/14 08:41:42;;;;;;;7.43;3.28;;;;;;;14.21;100.00;100533.84;4951234;29;20051;-71
2022/09/14 08:44:10;;;;;;;6.28;3.13;;;;;;;14.28;100.00;100535.63;4951211;28;20054;-70
2022/09/14 08:46:58;;;;;;;6.50;3.15;;;;;;;14.27;100.00;100534.81;4950973;29;20025;-66
2022/09/14 08:49:32;;;;;;;12.27;4.03;;;;;;;14.26;100.00;100535.84;4951039;29;20070;-66
2022/09/14 08:51:58;;;;;;;6.03;3.40;;;;;;;14.27;100.00;100539.34;4950492;29;20031;-66
2022/09/14 08:54:24;;;;;;;9.35;3.97;;;;;;;14.25;100.00;100532.38;4950880;29;20038;-65
2022/09/14 08:57:02;;;;;;;8.40;3.70;;;;;;;14.27;100.00;100534.81;4950887;28;20047;-66
2022/09/14 08:59:49;;;;;;;8.45;3.42;;;;;;;14.29;100.00;100535.41;4950579;28;20114;-65
2022/09/14 09:02:16;;;;;;;6.90;3.97;;;;;;;14.25;100.00;100540.41;4951122;29;20023;-66
2022/09/14 09:04:53;;;;;;;5.43;2.90;;;;;;;14.29;100.00;100542.63;4950889;29;20062;-66
2022/09/14 09:07:40;;;;;;;11.15;4.03;;;;;;;14.29;100.00;100543.44;4950372;28;20027;-66
2022/09/14 09:10:10;;;;;;;6.00;3.47;;;;;;;14.33;100.00;100552.69;4950927;29;20050;-66
2022/09/14 09:12:39;;;;;;;8.95;3.90;;;;;;;14.36;100.00;100541.50;4950615;28;20137;-66
2022/09/14 09:15:23;;;;;;;10.23;3.65;;;;;;;14.31;100.00;100541.34;4950748;29;20070;-65
2022/09/14 09:17:57;;;;;;;8.95;3.45;;;;;;;14.37;100.00;100547.66;4950282;28;20031;-66
2022/09/14 09:20:33;;;;;;;8.30;4.05;;;;;;;14.38;100.00;100557.34;4950523;29;20978;-66
2022/09/14 09:23:10;;;;;;;6.28;4.15;;;;;;;14.39;100.00;100550.94;4950574;29;20031;-66
2022/09/14 09:26:05;;;;;;;6.65;4.18;;;;;;;14.40;100.00;100548.03;4950710;29;20113;-66
2022/09/14 09:28:31;;;;;;;8.15;3.72;;;;;;;14.38;100.00;100552.81;4932483;29;20032;-66
2022/09/14 09:31:03;;;;;;;10.60;4.28;;;;;;;14.36;100.00;100549.53;4932328;29;20106;-66
2022/09/14 09:33:30;;;;;;;11.23;3.88;;;;;;;14.35;100.00;100549.75;4950622;29;20090;-66
2022/09/14 09:35:55;;;;;;;10.07;3.95;;;;;;;14.34;100.00;100543.59;4950332;29;20114;-66
2022/09/14 09:38:24;;;;;;;11.90;4.35;;;;;;;14.31;100.00;100540.56;4950179;29;20150;-66
2022/09/14 09:41:06;;;;;;;11.50;4.47;;;;;;;14.29;100.00;100539.94;4950426;29;20034;-66
2022/09/14 09:43:32;;;;;;;8.90;4.05;;;;;;;14.28;100.00;100538.28;4950377;28;20058;-66
2022/09/14 09:46:03;;;;;;;8.40;4.45;;;;;;;14.23;100.00;100531.78;4949853;29;20437;-66
2022/09/14 09:48:39;;;;;;;15.05;4.70;;;;;;;14.24;100.00;100540.63;4950505;29;20032;-66
2022/09/14 09:51:22;;;;;;;8.82;3.80;;;;;;;14.24;100.00;100543.31;4950438;29;21005;-66
2022/09/14 09:53:54;;;;;;;12.45;5.03;;;;;;;14.25;100.00;100537.72;4950354;29;20896;-66
2022/09/14 09:56:30;;;;;;;;;;;;;;;14.29;100.00;100538.09;4950815;29;20477;-66
2022/09/14 09:58:56;;;;;;;9.90;5.35;;;;;;;14.21;100.00;100533.03;4950617;29;19918;-66
2022/09/14 10:01:32;;;;;;;8.88;4.65;;;;;;;14.27;100.00;100534.81;4940620;29;20550;-66
2022/09/14 10:04:39;;;;;;;11.43;5.60;;;;;;;14.27;100.00;100528.63;4931939;29;20024;-67
2022/09/14 10:07:04;;;;;;;12.60;5.15;;;;;;;14.25;100.00;100531.53;4947317;29;20040;-70
2022/09/14 10:09:30;;;;;;;13.10;6.00;;;;;;;14.15;100.00;100507.16;4949720;28;20094;-71
2022/09/14 10:12:01;;;;;;;11.25;5.93;;;;;;;14.23;100.00;100523.72;4951691;28;20093;-71
2022/09/14 10:14:36;;;;;;;10.98;4.68;;;;;;;14.27;100.00;100529.44;4937036;29;20051;-71
2022/09/14 10:17:22;;;;;;;10.80;4.90;;;;;;;14.31;100.00;100525.25;4934828;29;20045;-71
2022/09/14 10:19:51;;;;;;;14.57;5.72;;;;;;;14.38;100.00;100523.31;4953043;28;20042;-71
2022/09/14 10:22:27;;;;;;;12.93;5.20;;;;;;;14.44;100.00;100522.38;4953385;28;20096;-71
2022/09/14 10:24:56;;;;;;;13.63;5.45;;;;;;;14.52;100.00;100518.53;4952014;29;20501;-71
2022/09/14 10:27:35;;;;;;;12.73;5.25;;;;;;;14.60;100.00;100515.56;4950539;29;20034;-70
2022/09/14 10:30:03;;;;;;;9.40;4.78;;;;;;;14.70;100.00;100525.72;4953535;29;20043;-70
2022/09/14 10:32:31;;;;;;;14.70;4.53;;;;;;;14.78;100.00;100519.19;4953453;28;20034;-70
2022/09/14 10:34:58;;;;;;;8.43;4.82;;;;;;;14.88;100.00;100522.09;4953128;28;20035;-70
2022/09/14 10:37:42;;;;;;;10.68;4.90;;;;;;;14.93;100.00;100522.22;4953516;28;20070;-71
2022/09/14 10:40:17;;;;;;;12.20;5.78;;;;;;;15.00;100.00;100522.09;4953238;29;20411;-71
2022/09/14 10:43:07;;;;;;;14.60;5.80;;;;;;;15.02;100.00;100522.69;4952792;28;20364;-71
2022/09/14 10:45:37;;;;;;;10.68;4.93;;;;;;;15.03;100.00;100522.44;4952189;28;20023;-71
2022/09/14 10:48:36;;;;;;;13.35;5.85;;;;;;;15.07;100.00;100523.63;4952163;29;20492;-71
2022/09/14 10:51:22;;;;;;;11.02;5.68;;;;;;;15.08;100.00;100521.75;4935205;29;20418;-71
2022/09/14 10:54:12;;;;;;;10.20;4.03;;;;;;;15.04;100.00;100525.97;4952906;29;20045;-70
2022/09/14 10:56:59;;;;;;;10.85;5.05;;;;;;;14.97;100.00;100518.03;4952928;29;20027;-71
2022/09/14 10:59:51;;;;;;;9.32;5.55;;;;;;;14.95;100.00;100527.38;4941352;29;20659;-70
2022/09/14 11:02:16;;;;;;;10.57;3.88;;;;;;;14.91;100.00;100518.97;4917483;29;20432;-71
2022/09/14 11:05:11;;;;;;;7.63;3.40;;;;;;;14.90;100.00;100517.31;4934656;29;20039;-71
2022/09/14 11:07:48;;;;;;;10.20;4.20;;;;;;;14.83;100.00;100508.56;4934467;29;20358;-71
2022/09/14 11:10:39;;;;;;;9.70;4.50;;;;;;;14.90;100.00;100520.00;4933890;29;20050;-71
2022/09/14 11:13:49;;;;;;;12.75;5.28;;;;;;;14.92;100.00;100517.91;4951736;29;20059;-71
2022/09/14 11:16:46;;;;;;;6.45;4.15;;;;;;;14.86;100.00;100516.97;4932819;29;20395;-71
2022/09/14 11:19:21;;;;;;;13.07;4.93;;;;;;;14.81;100.00;100516.84;4935379;29;20431;-71
2022/09/14 11:22:00;;;;;;;7.93;4.05;;;;;;;14.77;100.00;100518.34;4951920;28;20958;-71
2022/09/14 11:24:38;;;;;;;11.70;5.43;;;;;;;14.76;100.00;100516.72;4951973;29;20031;-70
2022/09/14 11:27:10;;;;;;;7.60;3.63;;;;;;;14.71;100.00;100521.97;4951703;29;20102;-71
2022/09/14 11:29:46;;;;;;;7.40;3.72;;;;;;;14.62;100.00;100510.78;4952081;29;20121;-71
2022/09/14 11:32:16;;;;;;;7.10;3.70;;;;;;;14.62;100.00;100520.69;4951941;29;20027;-71